Latest Coastal Weather Observations for Avalon

IDV60701

Issued at 1:31 am EST Thursday 5 May 2016 (issued every 10 minutes, with the page automatically refreshed every 10 minutes)

About coastal observations | Map of coastal stations | Coastal observations for VIC | Marine services | Other Formats
Station Details ID: 087113 Name: AVALON AIRPORT Lat: -38.03 Lon: 144.48 Height: 10.6 m
Data from the previous 72 hours. | See also: Recent months at Avalon
Date/Time
EST
Temp

°C
Wind Pressure Rain
since 9am
mm
Weather Cloud Vis
km
Sea
Height
m
Swell
Dir
 
Speed
knots
Gust
knots
hPa Trend Height
m
Period
s
Dir
05/01:30am 11.4 NNE 10 12 1015.6 - 0.0 - - 10 - - - -
05/01:00am 11.2 NNE 10 12 1015.7 - 0.0 - - 10 - - - -
05/12:30am 12.0 NNE 9 10 1015.8 - 0.0 - - 10 - - - -
05/12:00am 11.9 N 9 10 1016.0 - 0.0 - - 10 - - - -
 
Date/Time
EST
Temp

°C
Wind Pressure Rain
since 9am
mm
Weather Cloud Vis
km
Sea
Height
m
Swell
Dir
 
Speed
knots
Gust
knots
hPa Trend Height
m
Period
s
Dir
04/11:30pm 11.9 N 9 10 1016.0 - 0.0 - - 10 - - - -
04/11:00pm 12.9 N 10 12 1016.1 - 0.0 - Partly cloudy 10 - - - -
04/10:30pm 13.7 N 11 14 1016.2 - 0.0 - Cloudy 10 - - - -
04/10:00pm 14.3 N 10 13 1016.2 - 0.0 - Cloudy 10 - - - -
04/09:30pm 14.4 N 11 13 1016.2 - 0.0 - Cloudy 10 - - - -
04/09:00pm 14.6 N 10 13 1016.0 - 0.0 - Cloudy 10 - - - -
04/08:30pm 14.7 N 11 15 1015.9 - 0.0 - Cloudy 10 - - - -
04/08:00pm 14.5 N 11 14 1015.7 - 0.0 - Cloudy 10 - - - -
04/07:30pm 14.5 N 9 11 1015.7 - 0.0 - Cloudy 10 - - - -
04/07:00pm 14.8 N 10 13 1015.3 - 0.0 - Cloudy 10 - - - -
04/06:30pm 15.1 N 11 14 1014.9 - 0.0 - Cloudy 10 - - - -
04/06:00pm 15.3 N 11 15 1014.6 - 0.0 - Cloudy 10 - - - -
04/05:30pm 15.6 NNW 10 13 1014.4 - 0.0 - Cloudy 10 - - - -
04/05:00pm 16.1 NNW 12 15 1014.0 - 0.0 - Cloudy 10 - - - -
04/04:30pm 16.4 NNW 13 16 1013.9 - 0.0 - Cloudy 10 - - - -
04/04:00pm 16.7 NW 15 20 1013.7 - 0.0 - Partly cloudy 10 - - - -
04/03:30pm 16.8 NW 14 17 1013.8 - 0.0 - Cloudy 10 - - - -
04/03:00pm 16.8 NW 16 21 1013.8 - 0.0 - Cloudy 10 - - - -
04/02:30pm 16.7 NW 18 24 1013.7 - 0.0 - Cloudy 10 - - - -
04/02:00pm 16.8 NW 15 21 1013.8 - 0.0 - Cloudy 10 - - - -
04/01:30pm 16.6 NW 15 21 1013.9 - 0.0 - Cloudy 10 - - - -
04/01:00pm 17.5 NW 15 20 1013.9 - 0.0 - Partly cloudy 10 - - - -
04/12:30pm 17.1 NW 12 21 1014.3 - 0.0 - Partly cloudy 10 - - - -
04/12:00pm 16.8 NW 14 21 1014.7 - 0.0 - Partly cloudy 10 - - - -
04/11:30am 16.6 NW 14 19 1014.9 - 0.0 - Partly cloudy 10 - - - -
04/11:00am 15.7 NW 13 17 1015.1 - 0.0 - Partly cloudy 10 - - - -
04/10:30am 15.4 NW 12 16 1015.2 - 0.0 - - 10 - - - -
04/10:00am 14.7 NW 12 16 1015.2 - 0.0 - - 10 - - - -
04/09:30am 13.7 NW 13 17 1015.0 - 0.0 - - 10 - - - -
04/09:00am 12.8 NW 10 14 1015.0 - 0.6 - - 10 - - - -
04/08:30am 11.3 NW 13 17 1014.7 - 0.6 - - 10 - - - -
04/08:00am 10.1 NW 9 12 1014.2 - 0.6 - - 10 - - - -
04/07:30am 8.5 NNW 8 9 1013.8 - 0.6 - - 10 - - - -
04/07:00am 9.0 NW 10 12 1013.3 - 0.6 - - 10 - - - -
04/06:30am 8.5 NW 9 11 1013.1 - 0.6 - - 10 - - - -
04/06:00am 9.0 NW 10 12 1012.7 - 0.6 - - 10 - - - -
04/05:30am 8.4 NNW 9 11 1012.2 - 0.6 - - 10 - - - -
04/05:00am 9.6 NW 11 14 1011.9 - 0.6 - - 10 - - - -
04/04:30am 9.5 NW 10 12 1011.2 - 0.6 - Partly cloudy 10 - - - -
04/04:00am 9.8 NW 11 13 1011.1 - 0.6 - - 10 - - - -
04/03:30am 9.0 NW 9 11 1010.8 - 0.6 - - 10 - - - -
04/03:00am 9.6 NW 10 13 1010.4 - 0.6 - - 10 - - - -
04/02:30am 9.9 NW 9 11 1009.9 - 0.6 - - 10 - - - -
04/02:00am 10.3 NW 9 11 1009.8 - 0.6 - - 10 - - - -
04/01:30am 10.6 NW 10 12 1009.8 - 0.6 - Partly cloudy 10 - - - -
04/01:00am 11.1 WNW 11 14 1009.7 - 0.6 - Partly cloudy 10 - - - -
04/12:30am 11.7 WNW 17 24 1009.5 - 0.6 - Partly cloudy 10 - - - -
04/12:00am 11.4 WNW 12 16 1009.3 - 0.6 - Mostly cloudy 10 - - - -
 
Date/Time
EST
Temp

°C
Wind Pressure Rain
since 9am
mm
Weather Cloud Vis
km
Sea
Height
m
Swell
Dir
 
Speed
knots
Gust
knots
hPa Trend Height
m
Period
s
Dir
03/11:30pm 12.1 NW 9 11 1009.0 - 0.6 - Partly cloudy 10 - - - -
03/11:00pm 11.7 WNW 9 11 1008.6 - 0.6 - Partly cloudy 10 - - - -
03/10:30pm 12.2 NW 8 12 1008.3 - 0.6 - Partly cloudy 10 - - - -
03/10:00pm 11.9 NW 8 11 1007.9 - 0.6 - Cloudy 10 - - - -
03/09:30pm 12.1 NW 9 13 1007.7 - 0.6 - Partly cloudy 10 - - - -
03/09:00pm 12.3 WNW 11 14 1007.0 - 0.6 - Partly cloudy 10 - - - -
03/08:30pm 11.1 NNW 6 8 1006.6 - 0.6 - Partly cloudy 10 - - - -
03/08:00pm 12.5 NW 9 13 1006.1 - 0.6 - Partly cloudy 10 - - - -
03/07:30pm 13.3 WNW 12 15 1005.9 - 0.6 - Cloudy 10 - - - -
03/07:00pm 13.1 NW 9 14 1005.7 - 0.6 - Cloudy 10 - - - -
03/06:30pm 13.1 NW 13 17 1004.7 - 0.6 - Partly cloudy 10 - - - -
03/06:00pm 13.4 WNW 18 25 1003.9 - 0.6 Showers Mostly cloudy 10 - - - -
03/05:30pm 13.9 NW 14 21 1002.9 - 0.6 - Partly cloudy 10 - - - -
03/05:01pm 14.2 WNW 20 30 1002.5 - 0.6 - Partly cloudy 10 - - - -
03/05:00pm 14.2 WNW 19 25 1002.5 - 0.6 - Partly cloudy 10 - - - -
03/04:39pm 14.2 WNW 26 36 1001.5 - 0.6 - Partly cloudy 10 - - - -
03/04:30pm 14.8 WNW 27 36 1001.3 - 0.6 - Partly cloudy 10 - - - -
03/04:14pm 14.9 WNW 26 39 1000.7 - 0.6 - Partly cloudy 10 - - - -
03/04:00pm 14.8 WNW 27 36 1000.7 - 0.6 - Partly cloudy 10 - - - -
03/03:36pm 14.6 WNW 29 41 1000.5 - 0.6 - Partly cloudy 10 - - - -
03/03:30pm 14.4 W 26 34 1000.4 - 0.6 - Partly cloudy 10 - - - -
03/03:12pm 13.8 W 27 41 1000.0 - 0.4 - Partly cloudy 10 - - - -
03/03:05pm 14.5 W 32 42 999.8 - 0.4 - Partly cloudy 9 - - - -
03/03:00pm 15.3 WNW 29 43 999.3 - 0.4 Showers Mostly cloudy 6 - - - -
03/02:59pm 15.6 WNW 27 43 999.3 - 0.4 - Partly cloudy 6 - - - -
03/02:45pm 17.9 WNW 25 37 998.6 - 0.0 - Partly cloudy 10 - - - -
03/02:41pm 19.4 NW 28 39 998.3 - 0.0 - Partly cloudy 10 - - - -
03/02:32pm 21.1 NW 29 39 997.7 - 0.0 - Partly cloudy 10 - - - -
03/02:30pm 21.0 NW 29 36 997.7 - 0.0 - Partly cloudy 10 - - - -
03/02:00pm 19.8 NNW 28 40 997.8 - 0.0 - Partly cloudy 10 - - - -
03/01:30pm 20.1 NNW 28 40 997.6 - 0.0 - Partly cloudy 10 - - - -
03/01:20pm 19.7 NNW 25 36 997.7 - 0.0 - Partly cloudy 10 - - - -
03/01:18pm 19.7 NNW 26 37 997.9 - 0.0 - Partly cloudy 10 - - - -
03/01:00pm 19.4 NNW 32 43 997.5 - 0.0 - Partly cloudy 10 - - - -
03/12:30pm 19.8 NNW 29 39 997.7 - 0.0 - Partly cloudy 10 - - - -
03/12:13pm 19.4 NNW 25 35 998.1 - 0.0 - Partly cloudy 10 - - - -
03/12:00pm 19.6 NNW 27 36 998.3 - 0.0 - Cloudy 10 - - - -
03/11:35am 18.9 NNW 29 39 998.8 - 0.0 - Partly cloudy 10 - - - -
03/11:30am 19.1 NNW 29 37 998.7 - 0.0 - Partly cloudy 10 - - - -
03/11:00am 18.3 NNW 28 42 999.2 - 0.0 - Partly cloudy 10 - - - -
03/10:30am 18.5 NNW 32 44 998.9 - 0.0 - Partly cloudy 10 - - - -
03/10:00am 18.4 NNW 33 46 999.1 - 0.0 - - 10 - - - -
03/09:30am 18.2 NNW 29 43 999.3 - 0.0 - - 10 - - - -
03/09:01am 17.5 NNW 28 39 999.8 - 0.0 - - 10 - - - -
03/09:00am 17.6 NNW 28 37 999.9 - 0.0 - - 10 - - - -
03/08:30am 17.0 NNW 26 36 1000.3 - 0.0 - - 10 - - - -
03/08:07am 16.6 NNW 28 39 1000.2 - 0.0 - - 10 - - - -
03/08:00am 16.4 NNW 27 35 1000.2 - 0.0 - - 10 - - - -
03/07:36am 16.2 NNW 28 41 1000.1 - 0.0 - - 10 - - - -
03/07:30am 16.1 NNW 29 36 1000.1 - 0.0 - - 10 - - - -
03/07:14am 16.2 N 26 41 1000.3 - 0.0 - - 10 - - - -
03/07:00am 16.2 NNW 25 34 1000.8 - 0.0 - - 10 - - - -
03/06:46am 16.0 NNW 24 34 1000.8 - 0.0 - - 10 - - - -
03/06:30am 16.1 NNW 25 34 1000.7 - 0.0 - - 10 - - - -
03/06:20am 16.0 NNW 25 35 1000.9 - 0.0 - - 10 - - - -
03/06:00am 15.9 NNW 26 33 1001.0 - 0.0 - - 10 - - - -
03/05:37am 16.2 NNW 23 35 1001.2 - 0.0 - - 10 - - - -
03/05:30am 16.3 NNW 22 29 1001.4 - 0.0 - - 10 - - - -
03/05:04am 16.0 NNW 18 30 1001.6 - 0.0 - - 10 - - - -
03/05:00am 15.8 NNW 18 24 1001.7 - 0.0 - - 10 - - - -
03/04:30am 15.9 NNW 19 29 1001.9 - 0.0 - - 10 - - - -
03/04:25am 16.1 NW 19 29 1001.8 - 0.0 - - 10 - - - -
03/04:00am 15.9 NNW 22 29 1001.9 - 0.0 - - 10 - - - -
03/03:30am 15.7 NNW 20 26 1002.6 - 0.0 - - 10 - - - -
03/03:00am 15.5 NNW 20 28 1003.3 - 0.0 - - 10 - - - -
03/02:30am 15.6 NNW 18 25 1003.8 - 0.0 - - 10 - - - -
03/02:02am 16.2 NNW 19 29 1003.8 - 0.0 - - 10 - - - -
03/02:00am 15.9 NNW 18 26 1004.0 - 0.0 - - 10 - - - -
03/01:30am 16.1 N 16 20 1004.3 - 0.0 - Partly cloudy 10 - - - -
03/01:00am 16.0 N 17 24 1004.7 - 0.0 - - 10 - - - -
03/12:30am 16.1 N 19 27 1004.7 - 0.0 - Partly cloudy 10 - - - -
03/12:00am 16.0 N 18 23 1005.4 - 0.0 - Partly cloudy 10 - - - -
 
Date/Time
EST
Temp

°C
Wind Pressure Rain
since 9am
mm
Weather Cloud Vis
km
Sea
Height
m
Swell
Dir
 
Speed
knots
Gust
knots
hPa Trend Height
m
Period
s
Dir
02/11:30pm 15.8 N 16 21 1005.8 - 0.0 - Partly cloudy 10 - - - -
02/11:00pm 15.8 N 19 25 1005.9 - 0.0 - Partly cloudy 10 - - - -
02/10:30pm 16.0 N 21 29 1006.1 - 0.0 - Partly cloudy 10 - - - -
02/10:04pm 16.1 N 17 27 1006.5 - 0.0 - - 10 - - - -
02/10:00pm 15.4 N 17 24 1006.7 - 0.0 - - 10 - - - -
02/09:30pm 15.5 N 17 24 1006.7 - 0.0 - - 10 - - - -
02/09:00pm 16.1 NNW 19 27 1006.9 - 0.0 - - 10 - - - -
02/08:30pm 15.9 NNW 18 23 1007.1 - 0.0 - - 10 - - - -
02/08:00pm 15.9 NNW 17 25 1007.3 - 0.0 - - 10 - - - -
02/07:30pm 14.0 NNE 11 15 1007.4 - 0.0 - - 10 - - - -
02/07:00pm 14.0 NNE 10 13 1007.8 - 0.0 - - 10 - - - -
02/06:30pm 14.2 N 11 15 1007.7 - 0.0 - - 10 - - - -
02/06:00pm 14.8 N 13 18 1007.6 - 0.0 - - 10 - - - -
02/05:30pm 16.0 N 19 25 1007.3 - 0.0 - - 10 - - - -
02/05:00pm 16.6 N 19 24 1007.7 - 0.0 - - 10 - - - -
02/04:30pm 17.5 NNW 20 25 1007.9 - 0.0 - Partly cloudy 10 - - - -
02/04:00pm 18.3 NNW 20 27 1008.0 - 0.0 - Partly cloudy 10 - - - -
02/03:30pm 18.3 NNW 21 28 1008.1 - 0.0 - Partly cloudy 10 - - - -
02/03:00pm 17.9 NNW 21 30 1008.5 - 0.0 - Partly cloudy 10 - - - -
02/02:37pm 18.6 NNW 20 30 1008.4 - 0.0 - Partly cloudy 10 - - - -
02/02:30pm 18.8 NW 21 30 1008.3 - 0.0 - Partly cloudy 10 - - - -
02/02:00pm 18.6 NNW 21 28 1008.5 - 0.0 - Partly cloudy 10 - - - -
02/01:30pm 17.8 NNW 21 29 1008.9 - 0.0 - - 10 - - - -
02/01:00pm 17.9 NW 22 30 1009.3 - 0.0 - - 10 - - - -
02/12:30pm 17.8 NNW 21 26 1009.6 - 0.0 - - 10 - - - -
02/12:00pm 17.0 NNW 21 29 1010.2 - 0.0 - - 10 - - - -
02/11:30am 16.8 NNW 20 30 1010.5 - 0.0 - - 10 - - - -
02/11:20am 16.4 NNW 20 30 1010.9 - 0.0 - - 10 - - - -
02/11:00am 16.2 NNW 18 24 1011.3 - 0.0 - - 10 - - - -
02/10:30am 15.7 NNW 19 26 1011.6 - 0.0 - Partly cloudy 10 - - - -
02/10:22am 15.4 NNW 18 26 1011.6 - 0.0 - Partly cloudy 10 - - - -
02/10:00am 14.2 N 13 16 1012.2 - 0.0 - Partly cloudy 10 - - - -
02/09:30am 12.9 N 13 17 1012.5 - 0.0 - Partly cloudy 10 - - - -
02/09:00am 12.7 NNW 14 17 1012.5 - 0.8 - Cloudy 10 - - - -
02/08:30am 12.0 NNW 14 18 1012.9 - 0.8 - Cloudy 10 - - - -
02/08:00am 11.7 NNW 15 21 1012.8 - 0.8 - Partly cloudy 10 - - - -
02/07:30am 10.6 NNW 12 15 1012.7 - 0.8 - Partly cloudy 10 - - - -
02/07:00am 10.2 NNW 11 15 1012.7 - 0.8 - - 10 - - - -
02/06:30am 9.3 NNW 11 12 1012.7 - 0.8 - - 10 - - - -
02/06:00am 8.6 NNW 12 14 1012.8 - 0.8 - - 10 - - - -
02/05:30am 8.1 N 11 13 1013.0 - 0.8 - - 10 - - - -
02/05:00am 9.5 NNW 13 16 1012.9 - 0.8 - - 10 - - - -
02/04:30am 9.0 NNW 11 14 1012.7 - 0.8 - - 10 - - - -
02/04:00am 8.9 NNW 11 14 1012.8 - 0.8 - - 10 - - - -
02/03:30am 9.4 NNW 15 20 1013.0 - 0.8 - - 10 - - - -
02/03:00am 9.5 NNW 13 16 1013.2 - 0.8 - - 10 - - - -
02/02:30am 9.5 NNW 13 18 1013.5 - 0.8 - - 10 - - - -
02/02:00am 9.7 NNW 13 16 1013.9 - 0.8 - - 10 - - - -

Other Formats:

Comma delimited format used in spreadsheet applications
http://www.bom.gov.au/fwo/IDV60701/IDV60701.94854.axf

JavaScript Object Notation format (JSON) in row-major order
http://www.bom.gov.au/fwo/IDV60701/IDV60701.94854.json